Hawaii METAR Reports

 

PHOG - Kahului, Hawaii, USA
Distance from station: WNW 8mi, 13km
Updated: Thu, 29-Jul-2021 12:54am HST
Few Clouds
Few Clouds
 Wind from E
Wind: E 8 mph , 13 km/h
Temperature: 73°F , 23°C
Dew Point: 70°F , 21°C
Humidity: 89%
Barometer: 30.04 inHg , 1017.3 hPa
Clouds: Few Clouds
Visibility: 10 miles , 16 km
Cloud details: Few Clouds 3700 ft
2021/07/29 10:54 PHOG 291054Z AUTO 08007KT 10SM FEW037 23/21 A3004 RMK AO2 SLP177 T02280206 TSNO
PHJH - Lahaina/West Mau, Hawaii, USA
Distance from station: WNW 24mi, 39km
Updated: Wed, 28-Jul-2021 1:45pm HST
NOT Current
Light drizzle, Mist, Mostly cloudy
Light drizzle, Mist, Mostly cloudy
 Wind from NE
Wind: NE 17 mph , 28 km/h
Temperature: 84°F , 29°C
Heat Index: 87°F , 31°C
Dew Point: 68°F , 20°C
Humidity: 58%
Barometer: 30.04 inHg , 1017.3 hPa
Summary: Light drizzle, Mist
Clouds: Mostly Cloudy
Visibility: 10 miles , 16 km
Cloud details: Few Clouds 2500 ft
Mostly Cloudy 4000 ft
2021/07/28 23:45 PHJH 282345Z 04015KT 10SM -DZ BR FEW025 BKN040 29/20 A3004
 
PHNY - Lanai City Airpo, Hawaii, USA
Distance from station: W 40mi, 65km
Updated: Thu, 29-Jul-2021 12:56am HST
Clear
Clear
 Wind from calm
Wind: Calm
Temperature: 70°F , 21°C
Barometer: 30.11 inHg , 1019.6 hPa
Clouds: Clear
Visibility: 10 miles , 16 km
2021/07/29 10:56 PHNY 291056Z AUTO 00000KT 10SM CLR 21/ A3011 RMK AO2 SLP175 T0206
PHMK - Molokai, Hawaii, USA
Distance from station: WNW 55mi, 88km
Updated: Thu, 29-Jul-2021 12:54am HST
Clear
Clear
 Wind from NE
Wind: NE 3 mph , 6 km/h
Temperature: 75°F , 24°C
Dew Point: 66°F , 19°C
Humidity: 74%
Barometer: 30.06 inHg , 1017.9 hPa
Clouds: Clear
Visibility: 10 miles , 16 km
2021/07/29 10:54 PHMK 291054Z AUTO 05003KT 10SM CLR 24/19 A3006 RMK AO2 SLP181 T02390189 TSNO
 
PHKO - Kailua/Kona, Hawaii, USA
Distance from station: SSE 79mi, 128km
Updated: Thu, 29-Jul-2021 12:53am HST
Partly Cloudy
Partly Cloudy
 Wind from SE
Wind: SE 8 mph , 13 km/h
Temperature: 79°F , 26°C
Dew Point: 70°F , 21°C
Humidity: 74%
Barometer: 30.01 inHg , 1016.3 hPa
Clouds: Partly Cloudy
Visibility: 10 miles , 16 km
Cloud details: Partly Cloudy 3500 ft
2021/07/29 10:53 PHKO 291053Z AUTO 13007KT 10SM SCT035 26/21 A3001 RMK AO2 SLP160 T02560211 TSNO
PHSF - Bradshaw Aaf/Haw, Hawaii, USA
Distance from station: SE 90mi, 145km
Updated: Thu, 29-Jul-2021 12:58am HST
Clear
Clear
 Wind from ESE
Wind: ESE 9 mph , 15 km/h
Temperature: 61°F , 16°C
Dew Point: 52°F , 11°C
Humidity: 72%
Barometer: 30.36 inHg , 1028.1 hPa
Clouds: Clear
Visibility: 10 miles , 16 km
2021/07/29 10:58 PHSF 291058Z AUTO 12008KT 10SM CLR 16/11 A3036 RMK AO2 SLPNO T01590105 TSNO $
 
PHNG - Kaneohe Mcas, Hawaii, USA
Distance from station: WNW 102mi, 164km
Updated: Thu, 29-Jul-2021 12:57am HST
Overcast
Overcast
 Wind from E
Wind: E 9 mph , 15 km/h
Temperature: 79°F , 26°C
Dew Point: 72°F , 22°C
Humidity: 79%
Barometer: 30.05 inHg , 1017.6 hPa
Clouds: Overcast
Visibility: 10 miles , 16 km
Cloud details: Mostly Cloudy 2000 ft
Overcast 4900 ft
2021/07/29 10:57 PHNG 291057Z 08008KT 10SM BKN020 OVC049 26/22 A3005 RMK AO2 SLP170 T02560217
PHNL - Honolulu, Hawaii, USA
Distance from station: WNW 108mi, 174km
Updated: Thu, 29-Jul-2021 12:53am HST
Mostly Cloudy
Mostly Cloudy
 Wind from ENE
Wind: ENE 10 mph , 17 km/h
Temperature: 79°F , 26°C
Dew Point: 66°F , 19°C
Humidity: 65%
Barometer: 30.06 inHg , 1017.9 hPa
Clouds: Mostly Cloudy
Visibility: 10 miles , 16 km
Cloud details: Few Clouds 2000 ft
Mostly Cloudy 4400 ft
2021/07/29 10:53 PHNL 291053Z 07009KT 10SM FEW020 BKN044 26/19 A3006 RMK AO2 SLP180 VCSH N-E T02610194
 
PHTO - Hilo, Hawaii, USA
Distance from station: SE 114mi, 183km
Updated: Thu, 29-Jul-2021 12:53am HST
Overcast
Overcast
 Wind from WSW
Wind: WSW 5 mph , 7 km/h
Temperature: 73°F , 23°C
Dew Point: 70°F , 21°C
Humidity: 89%
Barometer: 30.06 inHg , 1017.9 hPa
Clouds: Overcast
Visibility: 10 miles , 16 km
Cloud details: Few Clouds 2200 ft
Overcast 5000 ft
2021/07/29 10:53 PHTO 291053Z AUTO 25004KT 10SM FEW022 OVC050 23/21 A3006 RMK AO2 RAE03B23E34 SLP179 P0002 T02330211 TSNO
PHJR - Kalaeloa, Hawaii, USA
Distance from station: WNW 117mi, 189km
Updated: Thu, 29-Jul-2021 12:53am HST
Clear
Clear
 Wind from NE
Wind: NE 3 mph , 6 km/h
Temperature: 77°F , 25°C
Dew Point: 66°F , 19°C
Humidity: 69%
Barometer: 30.08 inHg , 1018.6 hPa
Clouds: Clear
Visibility: 10 miles , 16 km
2021/07/29 10:53 PHJR 291053Z AUTO 05003KT 10SM CLR 25/19 A3008 RMK AO2 SLP190 T02500189 TSNO
 
PHHI - Wheeler Afb/Oahu, Hawaii, USA
Distance from station: WNW 120mi, 193km
Updated: Thu, 29-Jul-2021 1:03am HST
Overcast
Overcast
 Wind from E
Wind: E 5 mph , 7 km/h
Temperature: 73°F , 23°C
Dew Point: 68°F , 20°C
Humidity: 83%
Barometer: 30.09 inHg , 1019 hPa
Clouds: Overcast
Visibility: 10 miles , 16 km
Cloud details: Few Clouds 800 ft
Few Clouds 1200 ft
Partly Cloudy 2000 ft
Mostly Cloudy 2700 ft
Overcast 3600 ft
2021/07/29 11:03 PHHI 291103Z AUTO 10004KT 10SM FEW008 FEW012 SCT020 BKN027 OVC036 23/20 A3009 RMK AO2 DZE03DZB03 CIG 027V033 SLP178 $
PHLI - Lihue/Kauai Is, Hawaii, USA
Distance from station: WNW 209mi, 336km
Updated: Thu, 29-Jul-2021 12:53am HST
Few Clouds
Few Clouds
 Wind from ENE
Wind: ENE 13 mph , 20 km/h
Temperature: 79°F , 26°C
Dew Point: 72°F , 22°C
Humidity: 79%
Barometer: 30.10 inHg , 1019.3 hPa
Clouds: Few Clouds
Visibility: 10 miles , 16 km
Cloud details: Few Clouds 2100 ft
2021/07/29 10:53 PHLI 291053Z AUTO 06011KT 10SM FEW021 26/22 A3010 RMK AO2 SLP188 T02610217 TSNO
 
PHBK - Barking Sands/Ka, Hawaii, USA
Distance from station: WNW 237mi, 382km
Updated: Thu, 29-Jul-2021 12:51am HST
Clear
Clear
 Wind from ESE
Wind: ESE 3 mph , 6 km/h
Temperature: 77°F , 25°C
Dew Point: 66°F , 19°C
Humidity: 69%
Barometer: 30.06 inHg , 1017.9 hPa
Clouds: Clear
Visibility: 10 miles , 16 km
2021/07/29 10:51 PHBK 291051Z AUTO 12003KT 10SM CLR 25/19 A3006 RMK AO2 SLP181 T02500189